Elgin, Tennessee
Current Conditions -  °F | °C
As of 4:53 PM on Monday 20 Oct 2014 (Local Time) from KOQT Reporting Station
Broken Clouds Broken Clouds  
Wind Chill: 66°   Ceiling: 10000
Heat Index: 66°   Visibility: 10mi
Dew Point: 49°   Wind: 5mph
Humidity: 54%   Direction: NA
Pressure: 29.99"   Gusts: NA
Location:  36.33°N, 84.61°W
Report Text: KOQT 202053Z AUTO VRB04KT 10SM BKN100 BKN120 19/09 A2999 RMK AO2 SLP155 60000 T01890094 56018
Loading
Personal Weather Stations






























Interactive Weather Map
Tropical Storm Tracking
New forecast layout! Learn more

10-Day Weather Forecast

Advertisements
Track Severe Weather on mobile